sensor_id;sensor_type;location;lat;lon;timestamp;P1;durP1;ratioP1;P2;durP2;ratioP2
36225;SDS011;22268;52.010;4.716;2023-01-28T00:02:46;12.93;;;9.50;;
36225;SDS011;22268;52.010;4.716;2023-01-28T00:05:11;14.87;;;10.38;;
36225;SDS011;22268;52.010;4.716;2023-01-28T00:10:02;12.75;;;9.50;;
36225;SDS011;22268;52.010;4.716;2023-01-28T00:14:53;14.35;;;9.38;;
36225;SDS011;22268;52.010;4.716;2023-01-28T00:19:43;12.00;;;8.90;;
36225;SDS011;22268;52.010;4.716;2023-01-28T00:24:34;15.02;;;9.88;;
36225;SDS011;22268;52.010;4.716;2023-01-28T00:29:24;12.62;;;9.24;;
36225;SDS011;22268;52.010;4.716;2023-01-28T00:34:15;12.20;;;8.98;;
36225;SDS011;22268;52.010;4.716;2023-01-28T00:39:06;13.23;;;9.50;;
36225;SDS011;22268;52.010;4.716;2023-01-28T00:43:57;12.43;;;9.18;;
36225;SDS011;22268;52.010;4.716;2023-01-28T00:48:47;13.70;;;9.13;;
36225;SDS011;22268;52.010;4.716;2023-01-28T00:51:14;17.25;;;9.90;;
36225;SDS011;22268;52.010;4.716;2023-01-28T00:53:39;15.45;;;10.88;;
36225;SDS011;22268;52.010;4.716;2023-01-28T00:58:30;14.40;;;9.62;;
36225;SDS011;22268;52.010;4.716;2023-01-28T01:03:20;17.87;;;10.82;;
36225;SDS011;22268;52.010;4.716;2023-01-28T01:08:11;17.25;;;10.07;;
36225;SDS011;22268;52.010;4.716;2023-01-28T01:13:02;14.43;;;10.70;;
36225;SDS011;22268;52.010;4.716;2023-01-28T01:17:52;13.18;;;10.38;;
36225;SDS011;22268;52.010;4.716;2023-01-28T01:22:42;14.86;;;10.50;;
36225;SDS011;22268;52.010;4.716;2023-01-28T01:27:34;13.68;;;9.52;;
36225;SDS011;22268;52.010;4.716;2023-01-28T01:30:00;14.90;;;10.15;;
36225;SDS011;22268;52.010;4.716;2023-01-28T01:34:50;13.95;;;10.05;;
36225;SDS011;22268;52.010;4.716;2023-01-28T01:39:40;15.35;;;9.20;;
36225;SDS011;22268;52.010;4.716;2023-01-28T01:47:15;16.33;;;10.98;;
36225;SDS011;22268;52.010;4.716;2023-01-28T01:52:07;13.80;;;10.10;;
36225;SDS011;22268;52.010;4.716;2023-01-28T01:54:34;14.52;;;10.25;;
36225;SDS011;22268;52.010;4.716;2023-01-28T01:57:01;13.30;;;11.35;;
36225;SDS011;22268;52.010;4.716;2023-01-28T02:01:51;14.43;;;10.18;;
36225;SDS011;22268;52.010;4.716;2023-01-28T02:06:43;16.35;;;11.07;;
36225;SDS011;22268;52.010;4.716;2023-01-28T02:11:33;14.68;;;10.95;;
36225;SDS011;22268;52.010;4.716;2023-01-28T02:16:24;15.82;;;10.68;;
36225;SDS011;22268;52.010;4.716;2023-01-28T02:30:19;17.20;;;10.65;;
36225;SDS011;22268;52.010;4.716;2023-01-28T02:32:17;15.10;;;11.43;;
36225;SDS011;22268;52.010;4.716;2023-01-28T02:34:45;16.50;;;11.63;;
36225;SDS011;22268;52.010;4.716;2023-01-28T02:37:13;16.70;;;11.50;;
36225;SDS011;22268;52.010;4.716;2023-01-28T02:39:41;15.38;;;11.48;;
36225;SDS011;22268;52.010;4.716;2023-01-28T02:42:08;16.83;;;11.65;;
36225;SDS011;22268;52.010;4.716;2023-01-28T02:44:34;17.08;;;11.40;;
36225;SDS011;22268;52.010;4.716;2023-01-28T02:49:48;15.40;;;10.95;;
36225;SDS011;22268;52.010;4.716;2023-01-28T02:55:22;17.73;;;12.18;;
36225;SDS011;22268;52.010;4.716;2023-01-28T03:00:39;15.23;;;11.48;;
36225;SDS011;22268;52.010;4.716;2023-01-28T03:03:12;14.40;;;11.23;;
36225;SDS011;22268;52.010;4.716;2023-01-28T03:05:43;14.52;;;10.75;;
36225;SDS011;22268;52.010;4.716;2023-01-28T03:08:27;18.92;;;12.25;;
36225;SDS011;22268;52.010;4.716;2023-01-28T03:11:11;15.55;;;11.45;;
36225;SDS011;22268;52.010;4.716;2023-01-28T03:13:55;14.85;;;11.27;;
36225;SDS011;22268;52.010;4.716;2023-01-28T03:16:39;14.38;;;11.25;;
36225;SDS011;22268;52.010;4.716;2023-01-28T03:19:24;13.98;;;10.63;;
36225;SDS011;22268;52.010;4.716;2023-01-28T03:22:08;12.15;;;9.85;;
36225;SDS011;22268;52.010;4.716;2023-01-28T03:24:52;13.45;;;9.30;;
36225;SDS011;22268;52.010;4.716;2023-01-28T03:27:38;10.95;;;8.20;;
36225;SDS011;22268;52.010;4.716;2023-01-28T03:30:27;11.38;;;7.62;;
36225;SDS011;22268;52.010;4.716;2023-01-28T03:33:11;11.38;;;8.43;;
36225;SDS011;22268;52.010;4.716;2023-01-28T03:35:56;8.52;;;6.70;;
36225;SDS011;22268;52.010;4.716;2023-01-28T03:38:40;10.60;;;7.03;;
36225;SDS011;22268;52.010;4.716;2023-01-28T03:41:08;8.38;;;6.47;;
36225;SDS011;22268;52.010;4.716;2023-01-28T03:43:33;10.85;;;7.03;;
36225;SDS011;22268;52.010;4.716;2023-01-28T03:48:24;6.97;;;5.72;;
36225;SDS011;22268;52.010;4.716;2023-01-28T03:50:50;8.55;;;6.43;;
36225;SDS011;22268;52.010;4.716;2023-01-28T03:55:41;10.93;;;6.53;;
36225;SDS011;22268;52.010;4.716;2023-01-28T04:00:32;11.15;;;7.43;;
36225;SDS011;22268;52.010;4.716;2023-01-28T04:05:22;10.88;;;7.80;;
36225;SDS011;22268;52.010;4.716;2023-01-28T04:10:16;10.27;;;6.00;;
36225;SDS011;22268;52.010;4.716;2023-01-28T04:15:08;5.72;;;4.62;;
36225;SDS011;22268;52.010;4.716;2023-01-28T04:17:46;7.82;;;5.45;;
36225;SDS011;22268;52.010;4.716;2023-01-28T04:20:11;7.37;;;5.45;;
36225;SDS011;22268;52.010;4.716;2023-01-28T04:25:02;7.32;;;5.57;;
36225;SDS011;22268;52.010;4.716;2023-01-28T04:29:52;6.07;;;5.25;;
36225;SDS011;22268;52.010;4.716;2023-01-28T04:32:18;9.35;;;5.32;;
36225;SDS011;22268;52.010;4.716;2023-01-28T04:37:08;11.02;;;5.82;;
36225;SDS011;22268;52.010;4.716;2023-01-28T04:41:58;7.43;;;5.45;;
36225;SDS011;22268;52.010;4.716;2023-01-28T04:46:48;7.05;;;4.78;;
36225;SDS011;22268;52.010;4.716;2023-01-28T04:51:39;7.65;;;5.57;;
36225;SDS011;22268;52.010;4.716;2023-01-28T04:56:29;13.70;;;5.68;;
36225;SDS011;22268;52.010;4.716;2023-01-28T05:01:19;7.90;;;4.80;;
36225;SDS011;22268;52.010;4.716;2023-01-28T05:06:10;7.80;;;5.70;;
36225;SDS011;22268;52.010;4.716;2023-01-28T05:08:35;6.55;;;4.82;;
36225;SDS011;22268;52.010;4.716;2023-01-28T05:13:25;6.87;;;5.30;;
36225;SDS011;22268;52.010;4.716;2023-01-28T05:18:16;8.70;;;5.68;;
36225;SDS011;22268;52.010;4.716;2023-01-28T05:23:06;7.78;;;4.95;;
36225;SDS011;22268;52.010;4.716;2023-01-28T05:27:57;8.23;;;5.78;;
36225;SDS011;22268;52.010;4.716;2023-01-28T05:32:47;9.32;;;5.50;;
36225;SDS011;22268;52.010;4.716;2023-01-28T05:37:37;14.40;;;6.00;;
36225;SDS011;22268;52.010;4.716;2023-01-28T05:40:03;9.18;;;5.43;;
36225;SDS011;22268;52.010;4.716;2023-01-28T05:44:53;7.00;;;5.78;;
36225;SDS011;22268;52.010;4.716;2023-01-28T05:49:43;10.88;;;5.37;;
36225;SDS011;22268;52.010;4.716;2023-01-28T05:52:10;11.25;;;5.57;;
36225;SDS011;22268;52.010;4.716;2023-01-28T05:57:00;7.78;;;5.12;;
36225;SDS011;22268;52.010;4.716;2023-01-28T06:01:50;26.45;;;7.82;;
36225;SDS011;22268;52.010;4.716;2023-01-28T06:06:44;6.55;;;5.45;;
36225;SDS011;22268;52.010;4.716;2023-01-28T06:11:34;6.32;;;4.82;;
36225;SDS011;22268;52.010;4.716;2023-01-28T06:16:25;7.28;;;5.57;;
36225;SDS011;22268;52.010;4.716;2023-01-28T06:21:15;8.30;;;5.50;;
36225;SDS011;22268;52.010;4.716;2023-01-28T06:23:40;7.55;;;5.47;;
36225;SDS011;22268;52.010;4.716;2023-01-28T06:28:30;7.90;;;5.95;;
36225;SDS011;22268;52.010;4.716;2023-01-28T06:33:21;9.04;;;5.78;;
36225;SDS011;22268;52.010;4.716;2023-01-28T06:38:11;7.50;;;5.74;;
36225;SDS011;22268;52.010;4.716;2023-01-28T06:43:02;10.85;;;5.93;;
36225;SDS011;22268;52.010;4.716;2023-01-28T06:47:52;9.05;;;6.70;;
36225;SDS011;22268;52.010;4.716;2023-01-28T06:52:43;19.30;;;6.30;;
36225;SDS011;22268;52.010;4.716;2023-01-28T06:57:33;8.52;;;5.87;;
36225;SDS011;22268;52.010;4.716;2023-01-28T07:02:23;10.58;;;6.12;;
36225;SDS011;22268;52.010;4.716;2023-01-28T07:07:14;9.30;;;6.18;;
36225;SDS011;22268;52.010;4.716;2023-01-28T07:09:39;15.05;;;7.03;;
36225;SDS011;22268;52.010;4.716;2023-01-28T07:14:30;11.63;;;6.57;;
36225;SDS011;22268;52.010;4.716;2023-01-28T07:19:20;9.43;;;6.85;;
36225;SDS011;22268;52.010;4.716;2023-01-28T07:24:11;15.10;;;6.40;;
36225;SDS011;22268;52.010;4.716;2023-01-28T07:29:01;15.48;;;6.12;;
36225;SDS011;22268;52.010;4.716;2023-01-28T07:31:26;10.68;;;7.78;;
36225;SDS011;22268;52.010;4.716;2023-01-28T07:36:16;9.32;;;6.07;;
36225;SDS011;22268;52.010;4.716;2023-01-28T07:41:07;14.30;;;6.68;;
36225;SDS011;22268;52.010;4.716;2023-01-28T07:46:00;12.36;;;6.54;;
36225;SDS011;22268;52.010;4.716;2023-01-28T07:48:26;8.98;;;6.43;;
36225;SDS011;22268;52.010;4.716;2023-01-28T07:53:16;15.84;;;7.84;;
36225;SDS011;22268;52.010;4.716;2023-01-28T07:58:08;21.87;;;7.25;;
36225;SDS011;22268;52.010;4.716;2023-01-28T08:00:35;16.40;;;8.45;;
36225;SDS011;22268;52.010;4.716;2023-01-28T08:05:27;14.32;;;8.13;;
36225;SDS011;22268;52.010;4.716;2023-01-28T08:07:56;22.05;;;8.77;;
36225;SDS011;22268;52.010;4.716;2023-01-28T08:12:50;12.80;;;7.82;;
36225;SDS011;22268;52.010;4.716;2023-01-28T08:15:15;12.85;;;7.25;;
36225;SDS011;22268;52.010;4.716;2023-01-28T08:20:06;27.85;;;8.85;;
36225;SDS011;22268;52.010;4.716;2023-01-28T08:24:56;22.72;;;9.00;;
36225;SDS011;22268;52.010;4.716;2023-01-28T08:29:47;11.48;;;7.62;;
36225;SDS011;22268;52.010;4.716;2023-01-28T08:32:12;11.88;;;7.50;;
36225;SDS011;22268;52.010;4.716;2023-01-28T08:37:03;17.65;;;8.13;;
36225;SDS011;22268;52.010;4.716;2023-01-28T08:39:29;14.43;;;8.50;;
36225;SDS011;22268;52.010;4.716;2023-01-28T08:44:20;30.98;;;9.45;;
36225;SDS011;22268;52.010;4.716;2023-01-28T08:49:11;15.70;;;10.50;;
36225;SDS011;22268;52.010;4.716;2023-01-28T08:54:01;17.26;;;9.12;;
36225;SDS011;22268;52.010;4.716;2023-01-28T08:58:51;13.65;;;7.50;;
36225;SDS011;22268;52.010;4.716;2023-01-28T09:03:41;11.85;;;8.15;;
36225;SDS011;22268;52.010;4.716;2023-01-28T09:08:32;13.93;;;9.60;;
36225;SDS011;22268;52.010;4.716;2023-01-28T09:13:22;20.85;;;10.20;;
36225;SDS011;22268;52.010;4.716;2023-01-28T09:18:13;13.30;;;8.96;;
36225;SDS011;22268;52.010;4.716;2023-01-28T09:23:03;19.42;;;10.73;;
36225;SDS011;22268;52.010;4.716;2023-01-28T09:27:54;24.60;;;10.02;;
36225;SDS011;22268;52.010;4.716;2023-01-28T09:32:44;19.73;;;9.68;;
36225;SDS011;22268;52.010;4.716;2023-01-28T09:35:13;12.82;;;8.13;;
36225;SDS011;22268;52.010;4.716;2023-01-28T09:40:04;16.42;;;8.20;;
36225;SDS011;22268;52.010;4.716;2023-01-28T09:49:58;21.08;;;9.10;;
36225;SDS011;22268;52.010;4.716;2023-01-28T09:52:24;14.70;;;8.63;;
36225;SDS011;22268;52.010;4.716;2023-01-28T09:55:04;15.70;;;8.25;;
36225;SDS011;22268;52.010;4.716;2023-01-28T09:57:37;20.52;;;9.02;;
36225;SDS011;22268;52.010;4.716;2023-01-28T10:00:20;15.82;;;8.82;;
36225;SDS011;22268;52.010;4.716;2023-01-28T10:02:53;11.98;;;8.73;;
36225;SDS011;22268;52.010;4.716;2023-01-28T10:10:53;13.07;;;8.02;;
36225;SDS011;22268;52.010;4.716;2023-01-28T10:20:37;14.75;;;7.45;;
36225;SDS011;22268;52.010;4.716;2023-01-28T10:23:05;19.35;;;8.02;;
36225;SDS011;22268;52.010;4.716;2023-01-28T10:25:32;14.65;;;7.47;;
36225;SDS011;22268;52.010;4.716;2023-01-28T10:27:59;14.50;;;7.60;;
36225;SDS011;22268;52.010;4.716;2023-01-28T10:30:26;11.77;;;7.07;;
36225;SDS011;22268;52.010;4.716;2023-01-28T10:32:53;19.23;;;8.00;;
36225;SDS011;22268;52.010;4.716;2023-01-28T10:35:20;11.07;;;7.78;;
36225;SDS011;22268;52.010;4.716;2023-01-28T10:40:14;22.55;;;7.87;;
36225;SDS011;22268;52.010;4.716;2023-01-28T10:42:40;17.20;;;8.32;;
36225;SDS011;22268;52.010;4.716;2023-01-28T10:47:32;14.68;;;7.15;;
36225;SDS011;22268;52.010;4.716;2023-01-28T10:49:59;15.27;;;7.20;;
36225;SDS011;22268;52.010;4.716;2023-01-28T10:55:03;32.97;;;7.68;;
36225;SDS011;22268;52.010;4.716;2023-01-28T10:57:29;15.63;;;6.95;;
36225;SDS011;22268;52.010;4.716;2023-01-28T10:59:56;10.23;;;6.60;;
36225;SDS011;22268;52.010;4.716;2023-01-28T11:04:47;6.60;;;4.65;;
36225;SDS011;22268;52.010;4.716;2023-01-28T11:09:37;19.42;;;6.15;;
36225;SDS011;22268;52.010;4.716;2023-01-28T11:12:12;13.48;;;5.43;;
36225;SDS011;22268;52.010;4.716;2023-01-28T11:14:42;24.12;;;5.75;;
36225;SDS011;22268;52.010;4.716;2023-01-28T11:17:11;13.60;;;5.93;;
36225;SDS011;22268;52.010;4.716;2023-01-28T11:19:40;19.77;;;7.05;;
36225;SDS011;22268;52.010;4.716;2023-01-28T11:24:31;9.94;;;6.18;;
36225;SDS011;22268;52.010;4.716;2023-01-28T11:26:57;16.35;;;6.28;;
36225;SDS011;22268;52.010;4.716;2023-01-28T11:31:48;13.57;;;6.85;;
36225;SDS011;22268;52.010;4.716;2023-01-28T11:36:38;10.07;;;5.85;;
36225;SDS011;22268;52.010;4.716;2023-01-28T11:39:23;7.50;;;6.03;;
36225;SDS011;22268;52.010;4.716;2023-01-28T11:44:17;19.70;;;6.32;;
36225;SDS011;22268;52.010;4.716;2023-01-28T11:49:31;14.50;;;6.80;;
36225;SDS011;22268;52.010;4.716;2023-01-28T11:54:50;14.70;;;6.00;;
36225;SDS011;22268;52.010;4.716;2023-01-28T11:57:24;10.85;;;5.53;;
36225;SDS011;22268;52.010;4.716;2023-01-28T12:02:48;9.20;;;5.60;;
36225;SDS011;22268;52.010;4.716;2023-01-28T12:05:20;15.18;;;6.53;;
36225;SDS011;22268;52.010;4.716;2023-01-28T12:18:23;10.00;;;5.87;;
36225;SDS011;22268;52.010;4.716;2023-01-28T12:20:51;13.50;;;6.50;;
36225;SDS011;22268;52.010;4.716;2023-01-28T12:30:43;11.68;;;4.30;;
36225;SDS011;22268;52.010;4.716;2023-01-28T12:41:09;10.15;;;6.10;;
36225;SDS011;22268;52.010;4.716;2023-01-28T12:48:46;14.27;;;6.40;;
36225;SDS011;22268;52.010;4.716;2023-01-28T12:51:14;21.75;;;6.75;;
36225;SDS011;22268;52.010;4.716;2023-01-28T12:53:42;11.57;;;6.93;;
36225;SDS011;22268;52.010;4.716;2023-01-28T12:56:16;8.20;;;6.70;;
36225;SDS011;22268;52.010;4.716;2023-01-28T12:58:52;10.45;;;5.80;;
36225;SDS011;22268;52.010;4.716;2023-01-28T13:01:20;10.88;;;7.00;;
36225;SDS011;22268;52.010;4.716;2023-01-28T13:03:50;9.43;;;6.10;;
36225;SDS011;22268;52.010;4.716;2023-01-28T13:06:20;12.13;;;6.95;;
36225;SDS011;22268;52.010;4.716;2023-01-28T13:08:48;15.25;;;6.62;;
36225;SDS011;22268;52.010;4.716;2023-01-28T13:11:15;14.63;;;6.12;;
36225;SDS011;22268;52.010;4.716;2023-01-28T13:13:43;9.07;;;6.78;;
36225;SDS011;22268;52.010;4.716;2023-01-28T13:16:09;20.20;;;7.25;;
36225;SDS011;22268;52.010;4.716;2023-01-28T13:21:01;8.25;;;5.62;;
36225;SDS011;22268;52.010;4.716;2023-01-28T13:25:54;8.40;;;5.53;;
36225;SDS011;22268;52.010;4.716;2023-01-28T13:30:48;9.82;;;5.22;;
36225;SDS011;22268;52.010;4.716;2023-01-28T13:33:27;7.82;;;5.78;;
36225;SDS011;22268;52.010;4.716;2023-01-28T13:35:52;13.32;;;5.87;;
36225;SDS011;22268;52.010;4.716;2023-01-28T13:40:52;11.02;;;5.57;;
36225;SDS011;22268;52.010;4.716;2023-01-28T13:43:25;8.15;;;5.90;;
36225;SDS011;22268;52.010;4.716;2023-01-28T13:45:57;13.02;;;6.25;;
36225;SDS011;22268;52.010;4.716;2023-01-28T13:55:48;14.65;;;5.97;;
36225;SDS011;22268;52.010;4.716;2023-01-28T13:58:23;9.52;;;6.25;;
36225;SDS011;22268;52.010;4.716;2023-01-28T14:06:19;19.23;;;7.65;;
36225;SDS011;22268;52.010;4.716;2023-01-28T14:11:26;8.00;;;5.80;;
36225;SDS011;22268;52.010;4.716;2023-01-28T14:16:55;8.32;;;5.68;;
36225;SDS011;22268;52.010;4.716;2023-01-28T14:19:25;7.80;;;5.95;;
36225;SDS011;22268;52.010;4.716;2023-01-28T14:21:51;9.07;;;5.70;;
36225;SDS011;22268;52.010;4.716;2023-01-28T14:32:18;11.55;;;6.15;;
36225;SDS011;22268;52.010;4.716;2023-01-28T14:34:45;10.73;;;5.78;;
36225;SDS011;22268;52.010;4.716;2023-01-28T14:39:44;9.30;;;5.97;;
36225;SDS011;22268;52.010;4.716;2023-01-28T14:42:35;7.25;;;5.47;;
36225;SDS011;22268;52.010;4.716;2023-01-28T14:45:03;12.77;;;6.62;;
36225;SDS011;22268;52.010;4.716;2023-01-28T14:47:33;12.18;;;6.43;;
36225;SDS011;22268;52.010;4.716;2023-01-28T14:52:44;16.92;;;6.40;;
36225;SDS011;22268;52.010;4.716;2023-01-28T14:55:22;12.85;;;6.28;;
36225;SDS011;22268;52.010;4.716;2023-01-28T14:57:51;29.40;;;8.25;;
36225;SDS011;22268;52.010;4.716;2023-01-28T15:00:19;16.60;;;6.45;;
36225;SDS011;22268;52.010;4.716;2023-01-28T15:02:45;10.82;;;6.10;;
36225;SDS011;22268;52.010;4.716;2023-01-28T15:07:35;8.30;;;6.03;;
36225;SDS011;22268;52.010;4.716;2023-01-28T15:12:29;9.00;;;6.43;;
36225;SDS011;22268;52.010;4.716;2023-01-28T15:14:56;9.20;;;5.35;;
36225;SDS011;22268;52.010;4.716;2023-01-28T15:17:24;15.15;;;6.15;;
36225;SDS011;22268;52.010;4.716;2023-01-28T15:19:51;10.20;;;6.55;;
36225;SDS011;22268;52.010;4.716;2023-01-28T15:22:16;10.35;;;6.75;;
36225;SDS011;22268;52.010;4.716;2023-01-28T15:24:44;10.93;;;6.40;;
36225;SDS011;22268;52.010;4.716;2023-01-28T15:29:36;14.75;;;6.62;;
36225;SDS011;22268;52.010;4.716;2023-01-28T15:32:05;15.82;;;7.30;;
36225;SDS011;22268;52.010;4.716;2023-01-28T15:34:30;13.73;;;6.78;;
36225;SDS011;22268;52.010;4.716;2023-01-28T15:39:21;13.62;;;7.28;;
36225;SDS011;22268;52.010;4.716;2023-01-28T15:41:49;15.23;;;7.05;;
36225;SDS011;22268;52.010;4.716;2023-01-28T15:44:15;18.77;;;8.13;;
36225;SDS011;22268;52.010;4.716;2023-01-28T15:46:41;17.33;;;8.50;;
36225;SDS011;22268;52.010;4.716;2023-01-28T15:51:32;13.43;;;8.82;;
36225;SDS011;22268;52.010;4.716;2023-01-28T15:54:04;11.35;;;7.28;;
36225;SDS011;22268;52.010;4.716;2023-01-28T15:56:29;21.42;;;11.70;;
36225;SDS011;22268;52.010;4.716;2023-01-28T16:01:20;22.00;;;8.63;;
36225;SDS011;22268;52.010;4.716;2023-01-28T16:03:47;20.77;;;7.35;;
36225;SDS011;22268;52.010;4.716;2023-01-28T16:06:23;12.45;;;7.78;;
36225;SDS011;22268;52.010;4.716;2023-01-28T16:08:54;14.40;;;8.25;;
36225;SDS011;22268;52.010;4.716;2023-01-28T16:11:32;12.68;;;6.87;;
36225;SDS011;22268;52.010;4.716;2023-01-28T16:13:59;19.87;;;8.40;;
36225;SDS011;22268;52.010;4.716;2023-01-28T16:18:51;16.98;;;8.18;;
36225;SDS011;22268;52.010;4.716;2023-01-28T16:21:24;18.62;;;8.38;;
36225;SDS011;22268;52.010;4.716;2023-01-28T16:26:34;19.08;;;8.82;;
36225;SDS011;22268;52.010;4.716;2023-01-28T16:31:24;13.57;;;7.18;;
36225;SDS011;22268;52.010;4.716;2023-01-28T16:36:15;13.02;;;7.12;;
36225;SDS011;22268;52.010;4.716;2023-01-28T16:38:45;20.42;;;8.43;;
36225;SDS011;22268;52.010;4.716;2023-01-28T16:43:35;15.02;;;7.93;;
36225;SDS011;22268;52.010;4.716;2023-01-28T16:46:00;15.90;;;7.87;;
36225;SDS011;22268;52.010;4.716;2023-01-28T16:50:51;23.20;;;8.82;;
36225;SDS011;22268;52.010;4.716;2023-01-28T16:55:41;13.15;;;8.98;;
36225;SDS011;22268;52.010;4.716;2023-01-28T17:00:31;25.33;;;12.10;;
36225;SDS011;22268;52.010;4.716;2023-01-28T17:02:59;12.77;;;9.15;;
36225;SDS011;22268;52.010;4.716;2023-01-28T17:07:51;14.68;;;10.38;;
36225;SDS011;22268;52.010;4.716;2023-01-28T17:10:19;21.60;;;9.68;;
36225;SDS011;22268;52.010;4.716;2023-01-28T17:15:09;23.55;;;11.43;;
36225;SDS011;22268;52.010;4.716;2023-01-28T17:20:00;18.90;;;10.25;;
36225;SDS011;22268;52.010;4.716;2023-01-28T17:24:50;23.73;;;11.07;;
36225;SDS011;22268;52.010;4.716;2023-01-28T17:29:41;21.10;;;10.55;;
36225;SDS011;22268;52.010;4.716;2023-01-28T17:34:31;16.50;;;9.32;;
36225;SDS011;22268;52.010;4.716;2023-01-28T17:39:21;15.88;;;9.23;;
36225;SDS011;22268;52.010;4.716;2023-01-28T17:44:12;15.18;;;10.50;;
36225;SDS011;22268;52.010;4.716;2023-01-28T17:46:39;17.00;;;10.70;;
36225;SDS011;22268;52.010;4.716;2023-01-28T17:51:30;20.75;;;11.32;;
36225;SDS011;22268;52.010;4.716;2023-01-28T17:56:21;18.48;;;11.38;;
36225;SDS011;22268;52.010;4.716;2023-01-28T17:58:47;20.27;;;12.07;;
36225;SDS011;22268;52.010;4.716;2023-01-28T18:01:13;19.92;;;12.18;;
36225;SDS011;22268;52.010;4.716;2023-01-28T18:06:03;23.80;;;14.10;;
36225;SDS011;22268;52.010;4.716;2023-01-28T18:08:34;25.73;;;16.58;;
36225;SDS011;22268;52.010;4.716;2023-01-28T18:11:00;24.45;;;14.68;;
36225;SDS011;22268;52.010;4.716;2023-01-28T18:13:28;29.63;;;16.23;;
36225;SDS011;22268;52.010;4.716;2023-01-28T18:18:19;25.08;;;13.38;;
36225;SDS011;22268;52.010;4.716;2023-01-28T18:23:09;24.75;;;13.77;;
36225;SDS011;22268;52.010;4.716;2023-01-28T18:28:00;38.70;;;14.52;;
36225;SDS011;22268;52.010;4.716;2023-01-28T18:32:50;23.23;;;15.32;;
36225;SDS011;22268;52.010;4.716;2023-01-28T18:37:40;18.26;;;13.24;;
36225;SDS011;22268;52.010;4.716;2023-01-28T18:42:31;23.55;;;14.60;;
36225;SDS011;22268;52.010;4.716;2023-01-28T18:47:22;22.60;;;14.90;;
36225;SDS011;22268;52.010;4.716;2023-01-28T18:52:12;25.62;;;15.30;;
36225;SDS011;22268;52.010;4.716;2023-01-28T18:57:02;21.75;;;15.48;;
36225;SDS011;22268;52.010;4.716;2023-01-28T19:01:52;21.58;;;15.75;;
36225;SDS011;22268;52.010;4.716;2023-01-28T19:06:43;21.80;;;14.70;;
36225;SDS011;22268;52.010;4.716;2023-01-28T19:11:34;23.20;;;16.85;;
36225;SDS011;22268;52.010;4.716;2023-01-28T19:16:25;21.17;;;14.30;;
36225;SDS011;22268;52.010;4.716;2023-01-28T19:21:15;26.25;;;16.70;;
36225;SDS011;22268;52.010;4.716;2023-01-28T19:26:06;32.47;;;18.23;;
36225;SDS011;22268;52.010;4.716;2023-01-28T19:28:31;30.67;;;18.60;;
36225;SDS011;22268;52.010;4.716;2023-01-28T19:33:22;29.00;;;16.98;;
36225;SDS011;22268;52.010;4.716;2023-01-28T19:38:12;31.67;;;18.65;;
36225;SDS011;22268;52.010;4.716;2023-01-28T19:43:04;25.83;;;17.35;;
36225;SDS011;22268;52.010;4.716;2023-01-28T19:47:54;23.52;;;15.80;;
36225;SDS011;22268;52.010;4.716;2023-01-28T19:50:19;28.52;;;17.70;;
36225;SDS011;22268;52.010;4.716;2023-01-28T19:55:10;29.60;;;17.05;;
36225;SDS011;22268;52.010;4.716;2023-01-28T20:00:00;30.40;;;18.42;;
36225;SDS011;22268;52.010;4.716;2023-01-28T20:04:51;28.35;;;18.73;;
36225;SDS011;22268;52.010;4.716;2023-01-28T20:07:16;27.08;;;18.33;;
36225;SDS011;22268;52.010;4.716;2023-01-28T20:09:42;30.95;;;18.95;;
36225;SDS011;22268;52.010;4.716;2023-01-28T20:14:36;28.92;;;19.23;;
36225;SDS011;22268;52.010;4.716;2023-01-28T20:19:26;27.50;;;17.35;;
36225;SDS011;22268;52.010;4.716;2023-01-28T20:21:52;29.52;;;19.33;;
36225;SDS011;22268;52.010;4.716;2023-01-28T20:26:43;31.65;;;18.75;;
36225;SDS011;22268;52.010;4.716;2023-01-28T20:31:33;30.37;;;19.73;;
36225;SDS011;22268;52.010;4.716;2023-01-28T20:36:23;32.88;;;19.00;;
36225;SDS011;22268;52.010;4.716;2023-01-28T20:41:17;34.88;;;19.37;;
36225;SDS011;22268;52.010;4.716;2023-01-28T20:43:44;29.73;;;19.87;;
36225;SDS011;22268;52.010;4.716;2023-01-28T20:48:35;27.90;;;19.70;;
36225;SDS011;22268;52.010;4.716;2023-01-28T20:53:25;31.50;;;18.45;;
36225;SDS011;22268;52.010;4.716;2023-01-28T20:58:15;35.15;;;22.25;;
36225;SDS011;22268;52.010;4.716;2023-01-28T21:03:05;34.08;;;21.20;;
36225;SDS011;22268;52.010;4.716;2023-01-28T21:07:56;30.08;;;18.62;;
36225;SDS011;22268;52.010;4.716;2023-01-28T21:12:46;31.90;;;19.77;;
36225;SDS011;22268;52.010;4.716;2023-01-28T21:17:36;29.37;;;18.80;;
36225;SDS011;22268;52.010;4.716;2023-01-28T21:22:28;30.05;;;19.52;;
36225;SDS011;22268;52.010;4.716;2023-01-28T21:27:19;32.78;;;21.12;;
36225;SDS011;22268;52.010;4.716;2023-01-28T21:29:44;34.08;;;22.90;;
36225;SDS011;22268;52.010;4.716;2023-01-28T21:34:35;27.10;;;19.25;;
36225;SDS011;22268;52.010;4.716;2023-01-28T21:39:25;34.72;;;20.40;;
36225;SDS011;22268;52.010;4.716;2023-01-28T21:44:15;31.42;;;21.02;;
36225;SDS011;22268;52.010;4.716;2023-01-28T21:49:06;29.95;;;20.95;;
36225;SDS011;22268;52.010;4.716;2023-01-28T21:53:59;29.42;;;20.12;;
36225;SDS011;22268;52.010;4.716;2023-01-28T21:58:49;28.52;;;19.87;;
36225;SDS011;22268;52.010;4.716;2023-01-28T22:01:47;32.90;;;20.48;;
36225;SDS011;22268;52.010;4.716;2023-01-28T22:06:37;33.92;;;20.60;;
36225;SDS011;22268;52.010;4.716;2023-01-28T22:09:02;31.17;;;20.42;;
36225;SDS011;22268;52.010;4.716;2023-01-28T22:13:53;31.08;;;20.23;;
36225;SDS011;22268;52.010;4.716;2023-01-28T22:18:43;31.20;;;19.42;;
36225;SDS011;22268;52.010;4.716;2023-01-28T22:21:10;29.65;;;20.45;;
36225;SDS011;22268;52.010;4.716;2023-01-28T22:23:36;29.63;;;20.52;;
36225;SDS011;22268;52.010;4.716;2023-01-28T22:28:27;34.10;;;19.73;;
36225;SDS011;22268;52.010;4.716;2023-01-28T22:33:18;28.27;;;18.90;;
36225;SDS011;22268;52.010;4.716;2023-01-28T22:35:43;32.72;;;20.12;;
36225;SDS011;22268;52.010;4.716;2023-01-28T22:40:33;32.63;;;19.92;;
36225;SDS011;22268;52.010;4.716;2023-01-28T22:45:24;33.65;;;19.23;;
36225;SDS011;22268;52.010;4.716;2023-01-28T22:50:14;30.67;;;19.62;;
36225;SDS011;22268;52.010;4.716;2023-01-28T22:52:39;34.92;;;19.45;;
36225;SDS011;22268;52.010;4.716;2023-01-28T22:57:30;29.60;;;19.58;;
36225;SDS011;22268;52.010;4.716;2023-01-28T23:02:20;26.92;;;18.05;;
36225;SDS011;22268;52.010;4.716;2023-01-28T23:07:11;32.50;;;19.75;;
36225;SDS011;22268;52.010;4.716;2023-01-28T23:12:01;30.33;;;19.65;;
36225;SDS011;22268;52.010;4.716;2023-01-28T23:17:10;26.87;;;17.73;;
36225;SDS011;22268;52.010;4.716;2023-01-28T23:19:54;34.25;;;19.58;;
36225;SDS011;22268;52.010;4.716;2023-01-28T23:22:38;29.40;;;18.55;;
36225;SDS011;22268;52.010;4.716;2023-01-28T23:25:23;36.90;;;20.12;;
36225;SDS011;22268;52.010;4.716;2023-01-28T23:30:13;29.60;;;16.77;;
36225;SDS011;22268;52.010;4.716;2023-01-28T23:35:04;27.33;;;16.30;;
36225;SDS011;22268;52.010;4.716;2023-01-28T23:39:54;27.13;;;17.73;;
36225;SDS011;22268;52.010;4.716;2023-01-28T23:44:45;31.92;;;20.10;;
36225;SDS011;22268;52.010;4.716;2023-01-28T23:47:11;31.62;;;19.20;;
36225;SDS011;22268;52.010;4.716;2023-01-28T23:52:02;32.85;;;18.55;;
36225;SDS011;22268;52.010;4.716;2023-01-28T23:54:27;31.50;;;18.33;;
36225;SDS011;22268;52.010;4.716;2023-01-28T23:59:18;27.48;;;17.95;;
